Time;durP1;ratioP1;P1;durP2;ratioP2;P2;SDS_P1;SDS_P2;PMS_P1;PMS_P2;Temp;Humidity;BMP_temperature;BMP_pressure;BME280_temperature;BME280_humidity;BME280_pressure;Samples;Min_cycle;Max_cycle;Signal;HPM_P1;HPM_P2
2022/05/28 00:00:11;;;;;;;;;;;;;;;21.52;62.89;99372.06;4986809;28;19921;-85
2022/05/28 00:02:37;;;;;;;;;;;;;;;21.66;62.58;99370.28;5009882;28;19917;-85
2022/05/28 00:05:03;;;;;;;;;;;;;;;21.70;63.11;99374.50;5009170;28;19934;-84
2022/05/28 00:07:28;;;;;;;;;;;;;;;21.58;63.39;99386.88;5008877;28;20477;-84
2022/05/28 00:09:53;;;;;;;;;;;;;;;21.26;64.63;99382.63;5004184;28;19922;-86
2022/05/28 00:12:22;;;;;;;;;;;;;;;21.08;65.32;99379.28;4989622;28;19936;-84
2022/05/28 00:14:48;;;;;;;;;;;;;;;21.02;65.95;99377.03;5008073;28;19926;-84
2022/05/28 00:17:14;;;;;;;;;;;;;;;20.89;66.17;99376.94;4992207;28;20014;-84
2022/05/28 00:19:39;;;;;;;;;;;;;;;20.86;66.14;99366.41;5005127;28;19921;-84
2022/05/28 00:22:04;;;;;;;;;;;;;;;20.82;66.35;99367.56;4990686;28;20318;-85
2022/05/28 00:24:30;;;;;;;;;;;;;;;20.64;67.03;99371.34;4972322;28;19929;-84
2022/05/28 00:26:56;;;;;;;;;;;;;;;20.60;67.39;99375.19;4989991;28;19917;-84
2022/05/28 00:29:21;;;;;;;;;;;;;;;20.72;67.41;99380.66;4989335;28;20379;-84
2022/05/28 00:31:47;;;;;;;;;;;;;;;20.62;66.96;99375.94;4972123;28;19921;-84
2022/05/28 00:34:12;;;;;;;;;;;;;;;20.48;67.85;99369.63;5004339;28;19918;-84
2022/05/28 00:36:37;;;;;;;;;;;;;;;20.46;67.68;99368.84;5009467;28;19927;-83
2022/05/28 00:39:03;;;;;;;;;;;;;;;20.24;68.63;99371.97;5009492;28;19948;-84
2022/05/28 00:41:28;;;;;;;;;;;;;;;20.29;68.54;99374.38;5008586;28;19925;-84
2022/05/28 00:43:53;;;;;;;;;;;;;;;20.41;68.07;99370.09;4995821;28;19922;-84
2022/05/28 00:46:21;;;;;;;;;;;;;;;20.43;67.67;99360.97;4989211;28;19971;-84
2022/05/28 00:48:48;;;;;;;;;;;;;;;20.23;67.52;99361.34;4989017;28;19917;-85
2022/05/28 00:51:17;;;;;;;;;;;;;;;20.23;67.81;99359.50;4993930;28;19942;-84
2022/05/28 00:53:43;;;;;;;;;;;;;;;20.21;67.84;99370.31;4989112;28;19925;-86
2022/05/28 00:56:08;;;;;;;;;;;;;;;20.27;67.89;99371.78;5005114;28;19918;-85
2022/05/28 00:58:34;;;;;;;;;;;;;;;20.31;67.55;99373.31;5008785;28;19923;-85
2022/05/28 01:00:59;;;;;;;;;;;;;;;20.43;67.42;99369.03;5008426;28;19917;-86
2022/05/28 01:03:34;;;;;;;;;;;;;;;20.29;67.62;99372.53;5008227;28;19925;-85
2022/05/28 01:06:13;;;;;;;;;;;;;;;20.30;67.50;99374.28;4971865;28;19922;-85
2022/05/28 01:08:42;;;;;;;;;;;;;;;20.25;67.88;99373.69;4995161;28;19921;-85
2022/05/28 01:11:08;;;;;;;;;;;;;;;20.31;67.68;99377.81;5007538;28;19992;-86
2022/05/28 01:13:49;;;;;;;;;;;;;;;20.15;66.53;99368.00;5008398;28;19955;-85
2022/05/28 01:16:14;;;;;;;;;;;;;;;19.70;67.09;99371.56;4988789;28;19921;-85
2022/05/28 01:18:43;;;;;;;;;;;;;;;19.99;65.98;99380.59;4996183;28;19944;-86
2022/05/28 01:21:13;;;;;;;;;;;;;;;20.26;63.83;99367.38;5006805;28;19927;-85
2022/05/28 01:24:00;;;;;;;;;;;;;;;20.34;62.41;99361.53;5006971;28;19961;-84
2022/05/28 01:26:34;;;;;;;;;;;;;;;20.32;61.62;99358.97;4989643;28;20383;-85
2022/05/28 01:29:03;;;;;;;;;;;;;;;20.34;62.27;99365.09;5004768;28;20012;-85
2022/05/28 01:31:30;;;;;;;;;;;;;;;20.26;62.57;99367.38;5003761;28;20350;-84
2022/05/28 01:33:57;;;;;;;;;;;;;;;20.20;62.71;99373.09;5007479;28;19976;-85
2022/05/28 01:36:24;;;;;;;;;;;;;;;20.29;61.27;99369.84;5007180;28;19964;-85
2022/05/28 01:38:50;;;;;;;;;;;;;;;20.35;60.88;99369.50;5008343;28;19964;-84
2022/05/28 01:41:16;;;;;;;;;;;;;;;20.28;60.70;99369.94;5006262;28;19926;-84
2022/05/28 01:43:45;;;;;;;;;;;;;;;20.33;60.40;99363.38;5007733;28;20346;-84
2022/05/28 01:46:11;;;;;;;;;;;;;;;20.16;61.27;99367.06;4991699;28;19921;-83
2022/05/28 01:48:37;;;;;;;;;;;;;;;20.37;61.17;99356.00;5007912;28;19924;-85
2022/05/28 01:51:03;;;;;;;;;;;;;;;20.32;61.38;99360.78;4995721;28;19921;-85
2022/05/28 01:56:14;;;;;;;;;;;;;;;20.20;62.15;99357.91;5007424;28;19943;-85
2022/05/28 01:58:39;;;;;;;;;;;;;;;20.00;62.96;99356.41;4988553;28;20432;-85
2022/05/28 02:01:06;;;;;;;;;;;;;;;19.84;63.47;99353.75;4997878;28;19925;-85
2022/05/28 02:03:32;;;;;;;;;;;;;;;19.77;64.24;99347.06;4987960;28;20008;-84
2022/05/28 02:05:58;;;;;;;;;;;;;;;19.71;64.89;99350.06;4976838;28;19928;-84
2022/05/28 02:08:23;;;;;;;;;;;;;;;19.87;64.87;99351.88;5007416;28;19918;-84
2022/05/28 02:10:57;;;;;;;;;;;;;;;19.77;64.28;99347.06;5007114;28;20406;-84
2022/05/28 02:13:31;;;;;;;;;;;;;;;19.56;65.15;99333.09;4989460;28;19921;-84
2022/05/28 02:16:04;;;;;;;;;;;;;;;19.67;64.49;99340.50;4987764;28;19910;-84
2022/05/28 02:18:34;;;;;;;;;;;;;;;19.66;64.11;99330.72;4970130;28;19973;-84
2022/05/28 02:21:05;;;;;;;;;;;;;;;19.55;64.69;99341.19;4988284;28;20044;-84
2022/05/28 02:23:51;;;;;;;;;;;;;;;19.58;65.02;99349.91;5005955;28;19961;-83
2022/05/28 02:26:41;;;;;;;;;;;;;;;19.53;65.24;99341.28;4991184;28;20383;-84
2022/05/28 02:29:07;;;;;;;;;;;;;;;19.69;64.88;99341.25;4987777;28;19918;-84
2022/05/28 02:31:33;;;;;;;;;;;;;;;19.78;65.26;99343.41;4991398;28;19957;-84
2022/05/28 02:33:59;;;;;;;;;;;;;;;19.80;65.15;99354.03;4987341;28;19918;-84
2022/05/28 02:36:25;;;;;;;;;;;;;;;19.79;64.77;99355.00;4998387;28;20471;-84
2022/05/28 02:38:51;;;;;;;;;;;;;;;19.86;64.25;99361.69;5008137;28;20007;-84
2022/05/28 02:41:17;;;;;;;;;;;;;;;19.83;63.72;99351.19;5005601;28;20009;-84
2022/05/28 02:43:43;;;;;;;;;;;;;;;19.73;62.49;99353.50;4990249;28;19926;-83
2022/05/28 02:46:08;;;;;;;;;;;;;;;19.67;63.44;99362.75;5011569;28;20012;-83
2022/05/28 02:48:34;;;;;;;;;;;;;;;19.56;61.38;99361.66;5010428;28;19917;-84
2022/05/28 02:51:19;;;;;;;;;;;;;;;19.75;61.19;99369.47;5010299;28;20449;-84
2022/05/28 02:53:45;;;;;;;;;;;;;;;19.76;61.50;99369.38;4996031;28;20392;-84
2022/05/28 02:56:10;;;;;;;;;;;;;;;19.78;61.13;99370.19;4991394;28;19925;-84
2022/05/28 02:58:36;;;;;;;;;;;;;;;19.92;61.21;99374.72;5009158;28;20001;-83
2022/05/28 03:01:02;;;;;;;;;;;;;;;19.94;62.08;99380.88;4998569;28;19918;-84
2022/05/28 03:03:28;;;;;;;;;;;;;;;20.03;62.70;99385.69;4990602;28;19921;-85
2022/05/28 03:05:53;;;;;;;;;;;;;;;20.01;63.21;99386.72;4999014;28;19914;-85
2022/05/28 03:08:19;;;;;;;;;;;;;;;19.94;65.59;99388.91;4979758;28;19929;-85
2022/05/28 03:10:44;;;;;;;;;;;;;;;20.08;65.54;99380.06;4990206;28;19918;-85
2022/05/28 03:13:10;;;;;;;;;;;;;;;20.09;66.83;99375.56;4991991;28;19924;-85
2022/05/28 03:15:35;;;;;;;;;;;;;;;20.24;66.53;99376.47;5008119;28;20008;-85
2022/05/28 03:18:01;;;;;;;;;;;;;;;20.07;66.98;99372.97;5008964;28;19928;-85
2022/05/28 03:20:26;;;;;;;;;;;;;;;19.88;67.39;99367.84;5008079;28;20041;-84
2022/05/28 03:22:52;;;;;;;;;;;;;;;19.71;67.64;99379.50;5008498;28;19921;-85
2022/05/28 03:25:17;;;;;;;;;;;;;;;19.59;67.97;99386.41;5009981;28;19917;-84
2022/05/28 03:27:43;;;;;;;;;;;;;;;19.67;67.78;99386.81;5008974;28;19928;-84
2022/05/28 03:30:08;;;;;;;;;;;;;;;19.74;67.92;99389.16;5005867;28;20316;-84
2022/05/28 03:32:34;;;;;;;;;;;;;;;19.81;67.49;99388.72;4989484;28;20675;-83
2022/05/28 03:34:59;;;;;;;;;;;;;;;19.94;67.34;99380.00;4993794;28;19917;-84
2022/05/28 03:37:24;;;;;;;;;;;;;;;20.01;67.26;99387.56;5009354;28;19928;-83
2022/05/28 03:39:49;;;;;;;;;;;;;;;19.98;67.50;99381.53;5009325;28;19913;-85
2022/05/28 03:42:15;;;;;;;;;;;;;;;20.03;66.80;99388.38;5009640;28;19921;-85
2022/05/28 03:44:40;;;;;;;;;;;;;;;19.96;67.07;99388.81;4996045;28;19918;-85
2022/05/28 03:47:06;;;;;;;;;;;;;;;19.81;67.61;99383.38;5009764;28;19972;-85
2022/05/28 03:49:33;;;;;;;;;;;;;;;20.11;67.30;99395.94;4993875;28;20723;-84
2022/05/28 03:51:58;;;;;;;;;;;;;;;20.21;66.74;99409.63;4990867;28;19917;-84
2022/05/28 03:54:24;;;;;;;;;;;;;;;20.21;66.38;99415.84;4989615;28;19991;-84
2022/05/28 03:56:51;;;;;;;;;;;;;;;20.33;66.27;99422.28;4992490;28;19917;-84
2022/05/28 03:59:17;;;;;;;;;;;;;;;20.46;66.41;99427.78;5008225;28;19929;-84
2022/05/28 04:01:43;;;;;;;;;;;;;;;20.57;66.56;99430.69;5002630;28;19924;-84
2022/05/28 04:04:08;;;;;;;;;;;;;;;20.63;66.44;99425.91;5000274;28;19928;-84
2022/05/28 04:06:35;;;;;;;;;;;;;;;20.91;65.66;99417.94;4981955;28;19913;-85
2022/05/28 04:09:00;;;;;;;;;;;;;;;21.00;65.52;99423.66;4993212;28;19921;-85
2022/05/28 04:11:26;;;;;;;;;;;;;;;21.28;64.69;99431.66;5009483;28;20377;-84
2022/05/28 04:13:51;;;;;;;;;;;;;;;21.34;64.66;99438.47;5007787;28;20395;-85
2022/05/28 04:16:16;;;;;;;;;;;;;;;21.21;65.00;99437.50;5009173;28;20369;-84
2022/05/28 04:18:43;;;;;;;;;;;;;;;21.14;66.00;99438.88;5008049;28;19922;-85
2022/05/28 04:21:08;;;;;;;;;;;;;;;21.23;65.98;99432.94;5006693;28;20032;-85
2022/05/28 04:23:34;;;;;;;;;;;;;;;21.42;65.85;99427.25;4988713;28;20025;-85
2022/05/28 04:25:59;;;;;;;;;;;;;;;21.60;65.27;99427.94;4997391;28;19921;-85
2022/05/28 04:28:24;;;;;;;;;;;;;;;21.70;65.16;99433.56;5002039;28;20311;-85
2022/05/28 04:30:50;;;;;;;;;;;;;;;21.61;65.30;99435.88;4998811;28;20457;-84
2022/05/28 04:33:15;;;;;;;;;;;;;;;21.73;64.98;99446.78;5000976;28;20475;-85
2022/05/28 04:35:40;;;;;;;;;;;;;;;21.90;64.47;99441.16;5001415;28;19921;-84
2022/05/28 04:38:06;;;;;;;;;;;;;;;22.00;63.68;99449.47;4999717;28;19924;-85
2022/05/28 04:40:31;;;;;;;;;;;;;;;22.26;62.73;99445.03;4997003;28;19924;-84
2022/05/28 04:42:57;;;;;;;;;;;;;;;22.43;62.33;99435.00;4997858;28;19953;-84
2022/05/28 04:45:22;;;;;;;;;;;;;;;22.66;62.06;99457.59;4996869;28;19996;-84
2022/05/28 04:47:47;;;;;;;;;;;;;;;22.66;62.45;99454.91;4988613;28;19945;-85
2022/05/28 04:50:13;;;;;;;;;;;;;;;22.76;61.14;99453.31;4988846;28;19953;-86
2022/05/28 04:52:38;;;;;;;;;;;;;;;22.85;61.79;99444.63;4994251;28;19913;-85
2022/05/28 04:55:05;;;;;;;;;;;;;;;23.13;61.57;99441.84;5007997;28;19928;-86
2022/05/28 04:57:30;;;;;;;;;;;;;;;23.04;61.90;99433.41;5007503;28;19918;-85
2022/05/28 04:59:56;;;;;;;;;;;;;;;23.00;63.21;99431.03;5008294;28;19920;-85
2022/05/28 05:02:21;;;;;;;;;;;;;;;23.02;62.15;99421.91;5005237;28;19921;-84
2022/05/28 05:04:46;;;;;;;;;;;;;;;23.18;62.23;99426.22;5003267;28;19925;-87
2022/05/28 05:07:12;;;;;;;;;;;;;;;23.20;61.98;99427.84;5006266;28;19924;-87
2022/05/28 05:09:37;;;;;;;;;;;;;;;22.99;61.86;99432.88;5003662;28;19929;-86
2022/05/28 05:12:02;;;;;;;;;;;;;;;;;;5008046;28;20347;-85
2022/05/28 05:14:27;;;;;;;;;;;;;;;;;;4989959;28;20025;-86
2022/05/28 05:16:53;;;;;;;;;;;;;;;23.41;61.94;99424.56;5006393;28;19917;-88
2022/05/28 05:19:19;;;;;;;;;;;;;;;23.82;59.46;99428.75;4995870;28;19925;-86
2022/05/28 05:21:44;;;;;;;;;;;;;;;23.97;58.53;99432.13;5003940;28;19928;-87
2022/05/28 05:24:09;;;;;;;;;;;;;;;24.21;58.02;99423.19;5007926;28;19980;-85
2022/05/28 05:26:34;;;;;;;;;;;;;;;24.71;55.51;99425.69;5007818;28;20376;-86
2022/05/28 05:29:00;;;;;;;;;;;;;;;25.13;54.55;99431.38;5007555;28;19960;-86
2022/05/28 05:31:25;;;;;;;;;;;;;;;24.82;55.93;99428.41;4990051;28;20439;-87
2022/05/28 05:33:51;;;;;;;;;;;;;;;25.02;53.85;99413.34;5006676;28;19917;-86
2022/05/28 05:36:16;;;;;;;;;;;;;;;25.39;53.23;99423.91;4996881;28;19930;-87
2022/05/28 05:38:42;;;;;;;;;;;;;;;25.59;52.56;99422.28;5006868;28;19918;-87
2022/05/28 05:41:07;;;;;;;;;;;;;;;25.76;51.89;99425.44;5006724;28;19948;-86
2022/05/28 05:43:32;;;;;;;;;;;;;;;25.86;51.69;99432.66;4994244;28;19918;-87
2022/05/28 05:45:59;;;;;;;;;;;;;;;25.96;51.34;99431.88;4991885;28;19921;-86
2022/05/28 05:48:25;;;;;;;;;;;;;;;26.27;51.12;99424.78;5004191;28;19932;-88
2022/05/28 05:50:54;;;;;;;;;;;;;;;26.15;51.95;99420.41;4990794;28;19918;-88
2022/05/28 05:53:19;;;;;;;;;;;;;;;26.26;52.60;99426.63;5005514;28;19925;-88
2022/05/28 05:55:44;;;;;;;;;;;;;;;26.74;50.86;99443.34;5005669;28;19913;-87
2022/05/28 05:58:10;;;;;;;;;;;;;;;27.09;49.57;99436.72;5008088;28;19929;-89
2022/05/28 06:00:36;;;;;;;;;;;;;;;27.06;49.36;99437.84;5005354;28;19979;-88
2022/05/28 06:03:01;;;;;;;;;;;;;;;27.07;49.95;99436.84;5006618;28;19913;-88
2022/05/28 06:05:26;;;;;;;;;;;;;;;27.15;48.81;99439.72;5005518;28;20361;-86
2022/05/28 06:07:52;;;;;;;;;;;;;;;27.39;48.56;99441.31;4987234;28;20017;-88
2022/05/28 06:10:17;;;;;;;;;;;;;;;27.61;48.59;99437.50;5010748;28;19924;-87
2022/05/28 06:13:02;;;;;;;;;;;;;;;27.50;48.18;99441.19;5001038;28;19925;-95
2022/05/28 06:15:27;;;;;;;;;;;;;;;27.40;48.43;99439.44;4988378;28;20020;-88
2022/05/28 06:17:52;;;;;;;;;;;;;;;27.79;48.13;99443.13;5008088;28;20019;-90
2022/05/28 06:20:18;;;;;;;;;;;;;;;27.76;47.17;99442.53;5008204;28;19929;-90
2022/05/28 06:22:43;;;;;;;;;;;;;;;28.00;47.26;99451.16;4986445;28;19980;-91
2022/05/28 06:25:09;;;;;;;;;;;;;;;27.98;47.97;99453.16;4976072;28;19922;-91
2022/05/28 06:27:35;;;;;;;;;;;;;;;28.28;47.41;99450.47;4974726;28;19957;-88
2022/05/28 06:30:00;;;;;;;;;;;;;;;28.19;49.88;99450.34;4994180;28;20431;-85
2022/05/28 06:32:25;;;;;;;;;;;;;;;28.04;47.67;99444.47;4991930;28;20375;-86
2022/05/28 06:34:51;;;;;;;;;;;;;;;28.05;49.32;99442.59;4992751;28;19918;-86
2022/05/28 06:37:16;;;;;;;;;;;;;;;28.49;48.01;99440.31;4976612;28;19914;-86
2022/05/28 06:39:42;;;;;;;;;;;;;;;28.39;44.51;99434.91;4993255;28;20362;-87
2022/05/28 06:42:07;;;;;;;;;;;;;;;27.86;46.46;99438.84;4993859;28;19925;-88
2022/05/28 06:44:33;;;;;;;;;;;;;;;27.75;47.40;99443.53;4993307;28;19917;-88
2022/05/28 06:46:58;;;;;;;;;;;;;;;27.96;48.54;99438.91;4993665;28;19914;-88
2022/05/28 06:49:24;;;;;;;;;;;;;;;28.09;49.58;99441.34;4993920;28;19925;-89
2022/05/28 06:51:51;;;;;;;;;;;;;;;28.03;47.06;99436.47;5010438;28;19933;-87
2022/05/28 06:54:16;;;;;;;;;;;;;;;28.93;46.00;99431.69;5023655;28;19924;-87
2022/05/28 06:56:41;;;;;;;;;;;;;;;29.13;45.25;99437.06;5049084;28;19921;-87
2022/05/28 06:59:07;;;;;;;;;;;;;;;28.46;47.91;99434.34;5051822;28;19913;-86
2022/05/28 07:01:32;;;;;;;;;;;;;;;28.84;45.88;99435.28;5038385;28;19925;-87
2022/05/28 07:03:58;;;;;;;;;;;;;;;29.00;44.30;99429.25;5032056;28;19917;-87
2022/05/28 07:06:23;;;;;;;;;;;;;;;29.43;44.02;99419.69;5002201;28;19917;-87
2022/05/28 07:08:49;;;;;;;;;;;;;;;29.49;44.50;99419.06;5013045;28;20399;-88
2022/05/28 07:11:14;;;;;;;;;;;;;;;28.65;45.65;99415.34;5011937;28;19921;-89
2022/05/28 07:13:40;;;;;;;;;;;;;;;29.34;45.31;99416.00;4985129;28;20403;-85
2022/05/28 07:16:06;;;;;;;;;;;;;;;28.83;45.04;99415.44;5010836;28;19914;-84
2022/05/28 07:18:32;;;;;;;;;;;;;;;28.41;46.45;99404.94;5009599;28;19921;-85
2022/05/28 07:20:57;;;;;;;;;;;;;;;29.29;46.66;99400.16;5011299;28;19918;-86
2022/05/28 07:23:24;;;;;;;;;;;;;;;30.09;44.10;99398.66;5007645;28;19921;-90
2022/05/28 07:25:56;;;;;;;;;;;;;;;29.25;44.58;99401.44;4987960;28;20383;-90
2022/05/28 07:28:24;;;;;;;;;;;;;;;29.77;42.88;99395.44;5004576;28;19952;-90
2022/05/28 07:30:53;;;;;;;;;;;;;;;30.02;44.82;99390.25;5008432;28;19913;-89
2022/05/28 07:33:19;;;;;;;;;;;;;;;30.37;42.52;99393.97;4995730;28;19924;-87
2022/05/28 07:35:45;;;;;;;;;;;;;;;30.29;42.43;99394.75;4986074;28;19921;-87
2022/05/28 07:38:10;;;;;;;;;;;;;;;30.48;42.21;99393.75;5010126;28;19917;-89
2022/05/28 07:40:35;;;;;;;;;;;;;;;30.88;39.80;99380.56;5008793;28;19914;-87
2022/05/28 07:43:01;;;;;;;;;;;;;;;31.40;39.60;99375.03;5009525;28;19917;-86
2022/05/28 07:45:26;;;;;;;;;;;;;;;30.55;40.59;99377.63;5006071;28;19971;-84
2022/05/28 07:47:51;;;;;;;;;;;;;;;30.84;39.70;99371.00;5009014;28;19921;-85
2022/05/28 07:50:17;;;;;;;;;;;;;;;31.53;39.01;99358.22;5009738;28;19917;-87
2022/05/28 07:52:42;;;;;;;;;;;;;;;31.52;38.68;99359.22;5010117;28;19924;-88
2022/05/28 07:55:10;;;;;;;;;;;;;;;31.26;40.62;99362.03;5009848;28;19914;-88
2022/05/28 07:57:35;;;;;;;;;;;;;;;32.27;38.80;99349.28;4984362;28;20327;-87
2022/05/28 08:00:01;;;;;;;;;;;;;;;32.53;37.72;99342.78;4990440;28;19922;-86
2022/05/28 08:02:26;;;;;;;;;;;;;;;32.38;39.00;99339.91;5003474;28;19940;-86
2022/05/28 08:04:51;;;;;;;;;;;;;;;32.21;36.72;99325.41;5009078;28;19963;-88
2022/05/28 08:07:17;;;;;;;;;;;;;;;32.48;37.31;99322.31;5008641;28;19917;-87
2022/05/28 08:09:42;;;;;;;;;;;;;;;32.79;36.59;99316.13;5021012;28;19918;-86
2022/05/28 08:12:08;;;;;;;;;;;;;;;32.98;38.00;99317.59;4984429;28;20453;-88
2022/05/28 08:14:33;;;;;;;;;;;;;;;33.25;36.08;99312.72;5001776;28;20348;-88
2022/05/28 08:17:00;;;;;;;;;;;;;;;33.21;36.98;99307.78;4982978;28;20435;-87
2022/05/28 08:19:25;;;;;;;;;;;;;;;33.64;37.29;99297.28;5006520;28;19979;-89
2022/05/28 08:24:37;;;;;;;;;;;;;;;33.31;35.57;99276.47;4968680;28;19923;-89
2022/05/28 08:27:03;;;;;;;;;;;;;;;33.17;37.29;99280.78;5009522;28;19917;-90
2022/05/28 08:29:29;;;;;;;;;;;;;;;33.05;35.70;99273.19;4990672;28;19928;-89
2022/05/28 08:31:54;;;;;;;;;;;;;;;32.98;39.31;99264.84;4992459;28;19921;-86
2022/05/28 08:34:19;;;;;;;;;;;;;;;32.99;36.76;99261.09;5009823;28;19917;-86
2022/05/28 08:36:45;;;;;;;;;;;;;;;33.17;36.73;99258.09;5009559;28;20308;-87
2022/05/28 08:39:10;;;;;;;;;;;;;;;33.41;35.36;99253.53;5009066;28;19971;-86
2022/05/28 08:41:36;;;;;;;;;;;;;;;33.19;37.83;99256.91;5008652;28;19917;-87
2022/05/28 08:44:04;;;;;;;;;;;;;;;32.90;37.31;99237.56;5008560;28;19917;-87
2022/05/28 08:46:35;;;;;;;;;;;;;;;33.66;35.66;99238.66;5008101;28;20050;-85
2022/05/28 08:49:00;;;;;;;;;;;;;;;33.53;35.51;99232.94;5006004;28;19921;-88
2022/05/28 08:51:40;;;;;;;;;;;;;;;33.42;39.06;99234.22;5008503;28;19917;-86
2022/05/28 08:54:24;;;;;;;;;;;;;;;33.29;36.20;99217.56;5009003;28;19933;-86
2022/05/28 08:56:51;;;;;;;;;;;;;;;33.77;34.48;99225.59;5008667;28;19964;-85
2022/05/28 08:59:20;;;;;;;;;;;;;;;33.88;33.86;99223.25;5008914;28;20022;-85
2022/05/28 09:01:46;;;;;;;;;;;;;;;33.41;33.91;99221.56;5008539;28;19917;-87
2022/05/28 09:04:21;;;;;;;;;;;;;;;33.72;36.36;99217.94;5008598;28;19918;-86
2022/05/28 09:06:53;;;;;;;;;;;;;;;33.59;33.81;99215.78;4989165;28;19932;-84
2022/05/28 09:09:25;;;;;;;;;;;;;;;33.87;33.93;99209.78;5007468;28;19939;-83
2022/05/28 09:11:58;;;;;;;;;;;;;;;33.24;34.22;99201.72;5007340;28;19917;-86
2022/05/28 09:14:28;;;;;;;;;;;;;;;33.04;35.00;99193.09;5006029;28;19921;-85
2022/05/28 09:16:55;;;;;;;;;;;;;;;33.38;35.54;99189.13;5007816;28;19923;-86
2022/05/28 09:19:22;;;;;;;;;;;;;;;33.43;34.82;99192.19;5006600;28;19921;-85
2022/05/28 09:21:48;;;;;;;;;;;;;;;32.88;36.56;99191.31;5008498;28;19929;-87
2022/05/28 09:24:15;;;;;;;;;;;;;;;32.66;36.26;99185.63;5008480;28;19913;-87
2022/05/28 09:26:47;;;;;;;;;;;;;;;32.84;35.15;99179.91;5007909;28;20374;-87
2022/05/28 09:29:21;;;;;;;;;;;;;;;33.06;35.60;99182.88;5008193;28;20403;-87
2022/05/28 09:32:16;;;;;;;;;;;;;;;33.51;34.19;99185.81;5007866;28;19924;-86
2022/05/28 09:34:44;;;;;;;;;;;;;;;33.27;35.39;99184.09;4984068;28;19939;-84
2022/05/28 09:37:19;;;;;;;;;;;;;;;32.84;34.91;99190.84;4987410;28;19918;-85
2022/05/28 09:39:48;;;;;;;;;;;;;;;32.78;35.87;99187.97;4987609;28;19917;-86
2022/05/28 09:42:14;;;;;;;;;;;;;;;33.07;35.10;99186.44;4987868;28;19960;-85
2022/05/28 09:44:49;;;;;;;;;;;;;;;32.83;34.78;99191.88;4997433;28;20386;-85
2022/05/28 09:47:19;;;;;;;;;;;;;;;32.69;35.81;99191.75;5007936;28;20011;-85
2022/05/28 09:49:49;;;;;;;;;;;;;;;32.23;35.95;99196.00;5007459;28;20004;-86
2022/05/28 09:52:20;;;;;;;;;;;;;;;32.26;34.79;99190.19;4989410;28;20000;-85
2022/05/28 09:54:46;;;;;;;;;;;;;;;32.02;35.20;99184.78;5007740;28;19920;-86
2022/05/28 09:57:22;;;;;;;;;;;;;;;31.88;35.36;99189.06;5006392;28;19921;-85
2022/05/28 09:59:55;;;;;;;;;;;;;;;31.52;36.75;99195.72;5003873;28;19975;-86
2022/05/28 10:02:23;;;;;;;;;;;;;;;31.51;36.23;99191.31;5007779;28;19917;-86
2022/05/28 10:04:50;;;;;;;;;;;;;;;31.22;36.99;99179.00;5007437;28;19913;-86
2022/05/28 10:07:26;;;;;;;;;;;;;;;31.11;36.46;99170.31;5007292;28;19932;-86
2022/05/28 10:09:53;;;;;;;;;;;;;;;30.94;37.73;99173.00;5005340;28;19921;-87
2022/05/28 10:12:27;;;;;;;;;;;;;;;30.95;37.83;99165.66;5007684;28;20662;-85
2022/05/28 10:15:05;;;;;;;;;;;;;;;30.69;38.36;99175.66;5007321;28;20610;-86
2022/05/28 10:17:31;;;;;;;;;;;;;;;30.41;38.55;99183.16;5007214;28;19926;-85
2022/05/28 10:19:57;;;;;;;;;;;;;;;30.25;37.71;99197.53;5007017;28;19924;-85
2022/05/28 10:22:25;;;;;;;;;;;;;;;30.22;38.48;99197.84;5007473;28;19996;-85
2022/05/28 10:24:53;;;;;;;;;;;;;;;30.51;38.65;99196.66;5007427;28;20659;-85
2022/05/28 10:27:28;;;;;;;;;;;;;;;30.28;39.45;99204.53;5007643;28;20013;-86
2022/05/28 10:29:56;;;;;;;;;;;;;;;30.21;39.77;99211.59;5007709;28;19917;-86
2022/05/28 10:32:30;;;;;;;;;;;;;;;30.42;39.39;99212.09;4989988;28;19914;-86
2022/05/28 10:35:11;;;;;;;;;;;;;;;30.16;39.60;99196.63;5007414;28;19917;-85
2022/05/28 10:37:36;;;;;;;;;;;;;;;30.28;39.39;99215.41;5007526;28;19918;-85
2022/05/28 10:40:10;;;;;;;;;;;;;;;30.04;40.03;99207.94;5007130;28;20401;-85
2022/05/28 10:42:37;;;;;;;;;;;;;;;29.61;43.47;99200.47;5007799;28;19972;-87
2022/05/28 10:45:04;;;;;;;;;;;;;;;29.20;45.48;99194.66;5002132;28;20008;-86
2022/05/28 10:47:45;;;;;;;;;;;;;;;29.04;46.52;99194.47;5001697;28;19918;-84
2022/05/28 10:50:29;;;;;;;;;;;;;;;28.72;47.34;99188.53;4977020;28;19956;-88
2022/05/28 10:53:07;;;;;;;;;;;;;;;28.86;47.67;99192.59;4986709;28;19928;-87
2022/05/28 10:55:51;;;;;;;;;;;;;;;29.13;47.45;99189.97;5007518;28;20434;-88
2022/05/28 10:58:38;;;;;;;;;;;;;;;29.26;47.01;99180.47;5004506;28;19925;-88
2022/05/28 11:01:18;;;;;;;;;;;;;;;29.13;47.29;99182.69;4987873;28;19917;-88
2022/05/28 11:03:52;;;;;;;;;;;;;;;29.05;47.83;99179.91;4993671;28;19925;-87
2022/05/28 11:06:18;;;;;;;;;;;;;;;28.89;47.15;99188.72;5011340;28;19917;-85
2022/05/28 11:08:51;;;;;;;;;;;;;;;28.22;50.05;99200.59;5008857;28;20613;-86
2022/05/28 11:11:37;;;;;;;;;;;;;;;28.02;50.02;99196.22;4981929;28;19921;-86
2022/05/28 11:14:08;;;;;;;;;;;;;;;27.69;52.32;99188.41;4976714;28;19952;-88
2022/05/28 11:16:52;;;;;;;;;;;;;;;27.81;51.60;99180.16;5010713;28;19967;-87
2022/05/28 11:19:20;;;;;;;;;;;;;;;27.91;51.28;99143.03;5010123;28;19921;-87
2022/05/28 11:21:57;;;;;;;;;;;;;;;28.09;50.63;99150.44;4999011;28;19917;-87
2022/05/28 11:24:38;;;;;;;;;;;;;;;28.10;50.21;99155.69;4993783;28;19968;-86
2022/05/28 11:27:20;;;;;;;;;;;;;;;28.12;50.67;99150.97;4990147;28;19913;-85
2022/05/28 11:30:01;;;;;;;;;;;;;;;28.04;50.56;99159.84;4992327;28;20019;-85
2022/05/28 11:32:33;;;;;;;;;;;;;;;28.05;50.30;99160.69;5010252;28;19917;-85
2022/05/28 11:35:13;;;;;;;;;;;;;;;28.04;49.83;99177.97;5009435;28;19948;-85
2022/05/28 11:37:41;;;;;;;;;;;;;;;28.14;49.83;99170.66;5009835;28;19917;-85
2022/05/28 11:40:12;;;;;;;;;;;;;;;28.12;50.67;99164.53;5010133;28;19982;-86
2022/05/28 11:43:01;;;;;;;;;;;;;;;28.16;50.16;99154.22;5010068;28;19987;-86
2022/05/28 11:45:47;;;;;;;;;;;;;;;28.13;50.60;99155.41;5009337;28;20009;-85
2022/05/28 11:48:18;;;;;;;;;;;;;;;28.10;50.91;99152.13;5008992;28;19917;-87
2022/05/28 11:53:47;;;;;;;;;;;;;;;27.94;51.90;99148.16;4973874;28;19922;-86
2022/05/28 11:56:15;;;;;;;;;;;;;;;27.98;52.03;99155.03;4989784;28;19918;-86
2022/05/28 11:58:44;;;;;;;;;;;;;;;27.87;53.05;99163.31;4989416;28;19913;-86
2022/05/28 12:01:12;;;;;;;;;;;;;;;27.84;54.60;99160.88;4995923;28;20006;-85
2022/05/28 12:03:38;;;;;;;;;;;;;;;27.88;54.78;99167.69;5010163;28;19924;-84
2022/05/28 12:06:03;;;;;;;;;;;;;;;27.82;55.51;99171.88;5008745;28;19924;-85
2022/05/28 12:08:28;;;;;;;;;;;;;;;27.48;56.09;99176.91;5009528;28;19921;-87
2022/05/28 12:10:56;;;;;;;;;;;;;;;27.23;55.17;99171.03;5009572;28;20021;-86
2022/05/28 12:13:30;;;;;;;;;;;;;;;27.26;54.83;99176.16;4991899;28;19920;-84
2022/05/28 12:16:07;;;;;;;;;;;;;;;27.31;55.04;99173.94;5007889;28;20395;-83
2022/05/28 12:18:32;;;;;;;;;;;;;;;27.39;55.36;99164.22;4982268;28;19921;-83
2022/05/28 12:20:59;;;;;;;;;;;;;;;27.28;55.04;99165.19;4998992;28;19914;-84
2022/05/28 12:23:32;;;;;;;;;;;;;;;27.15;54.51;99163.63;5000018;28;19923;-84
2022/05/28 12:26:00;;;;;;;;;;;;;;;27.16;54.29;99154.53;4999255;28;19918;-83
2022/05/28 12:28:29;;;;;;;;;;;;;;;27.16;54.59;99156.38;4997615;28;20307;-84
2022/05/28 12:30:57;;;;;;;;;;;;;;;27.16;54.78;99146.41;4999322;28;20011;-83
2022/05/28 12:33:28;;;;;;;;;;;;;;;26.98;55.79;99148.94;4999781;28;19914;-84
2022/05/28 12:36:05;;;;;;;;;;;;;;;27.24;55.02;99134.00;4998571;28;19921;-84
2022/05/28 12:38:49;;;;;;;;;;;;;;;27.43;54.30;99122.34;4980730;28;19920;-85
2022/05/28 12:41:19;;;;;;;;;;;;;;;27.35;54.76;99103.25;4998820;28;19941;-84
2022/05/28 12:43:51;;;;;;;;;;;;;;;27.12;56.14;99093.53;4998351;28;19922;-85
2022/05/28 12:46:21;;;;;;;;;;;;;;;27.26;55.75;99091.41;4998997;28;20454;-86
2022/05/28 12:48:48;;;;;;;;;;;;;;;27.37;55.45;99096.69;4999523;28;20041;-85
2022/05/28 12:51:29;;;;;;;;;;;;;;;27.43;55.71;99096.09;4997523;28;20004;-84
2022/05/28 12:54:00;;;;;;;;;;;;;;;27.06;57.46;99099.53;5009162;28;19949;-85
2022/05/28 12:56:28;;;;;;;;;;;;;;;27.32;56.83;99105.22;4991181;28;19944;-85
2022/05/28 12:59:05;;;;;;;;;;;;;;;27.52;56.42;99089.81;5008909;28;19924;-84
2022/05/28 13:01:31;;;;;;;;;;;;;;;27.53;55.86;99090.69;5012509;28;19952;-84